sensor_id;sensor_type;location;lat;lon;timestamp;P1;durP1;ratioP1;P2;durP2;ratioP2
11042;SDS011;5574;48.786;10.120;2023-04-06T00:00:03;4.60;;;3.53;;
11042;SDS011;5574;48.786;10.120;2023-04-06T00:02:34;4.80;;;3.67;;
11042;SDS011;5574;48.786;10.120;2023-04-06T00:05:00;4.60;;;4.13;;
11042;SDS011;5574;48.786;10.120;2023-04-06T00:07:27;5.53;;;4.10;;
11042;SDS011;5574;48.786;10.120;2023-04-06T00:09:54;6.20;;;4.00;;
11042;SDS011;5574;48.786;10.120;2023-04-06T00:12:21;4.70;;;3.90;;
11042;SDS011;5574;48.786;10.120;2023-04-06T00:14:48;4.87;;;3.90;;
11042;SDS011;5574;48.786;10.120;2023-04-06T00:17:15;4.97;;;3.83;;
11042;SDS011;5574;48.786;10.120;2023-04-06T00:19:43;4.30;;;3.90;;
11042;SDS011;5574;48.786;10.120;2023-04-06T00:22:10;5.43;;;4.20;;
11042;SDS011;5574;48.786;10.120;2023-04-06T00:24:36;4.40;;;4.00;;
11042;SDS011;5574;48.786;10.120;2023-04-06T00:27:03;5.43;;;4.30;;
11042;SDS011;5574;48.786;10.120;2023-04-06T00:29:30;5.30;;;4.43;;
11042;SDS011;5574;48.786;10.120;2023-04-06T00:31:56;4.93;;;4.30;;
11042;SDS011;5574;48.786;10.120;2023-04-06T00:34:23;6.27;;;4.40;;
11042;SDS011;5574;48.786;10.120;2023-04-06T00:36:51;7.37;;;5.07;;
11042;SDS011;5574;48.786;10.120;2023-04-06T00:39:18;7.63;;;4.80;;
11042;SDS011;5574;48.786;10.120;2023-04-06T00:41:46;6.93;;;5.20;;
11042;SDS011;5574;48.786;10.120;2023-04-06T00:44:15;5.93;;;4.57;;
11042;SDS011;5574;48.786;10.120;2023-04-06T00:46:42;5.30;;;4.77;;
11042;SDS011;5574;48.786;10.120;2023-04-06T00:49:08;5.27;;;4.50;;
11042;SDS011;5574;48.786;10.120;2023-04-06T00:51:35;5.03;;;4.53;;
11042;SDS011;5574;48.786;10.120;2023-04-06T00:54:04;5.63;;;4.50;;
11042;SDS011;5574;48.786;10.120;2023-04-06T00:56:31;6.50;;;4.80;;
11042;SDS011;5574;48.786;10.120;2023-04-06T00:58:58;4.70;;;4.30;;
11042;SDS011;5574;48.786;10.120;2023-04-06T01:01:25;7.43;;;5.17;;
11042;SDS011;5574;48.786;10.120;2023-04-06T01:03:52;4.57;;;4.17;;
11042;SDS011;5574;48.786;10.120;2023-04-06T01:06:19;5.00;;;4.50;;
11042;SDS011;5574;48.786;10.120;2023-04-06T01:08:46;5.87;;;4.40;;
11042;SDS011;5574;48.786;10.120;2023-04-06T01:11:14;7.70;;;4.60;;
11042;SDS011;5574;48.786;10.120;2023-04-06T01:13:40;4.53;;;4.13;;
11042;SDS011;5574;48.786;10.120;2023-04-06T01:16:07;4.37;;;3.97;;
11042;SDS011;5574;48.786;10.120;2023-04-06T01:18:34;4.97;;;4.53;;
11042;SDS011;5574;48.786;10.120;2023-04-06T01:21:01;5.73;;;4.53;;
11042;SDS011;5574;48.786;10.120;2023-04-06T01:23:29;5.13;;;4.10;;
11042;SDS011;5574;48.786;10.120;2023-04-06T01:25:56;4.90;;;4.43;;
11042;SDS011;5574;48.786;10.120;2023-04-06T01:28:23;4.80;;;4.27;;
11042;SDS011;5574;48.786;10.120;2023-04-06T01:30:49;4.83;;;4.30;;
11042;SDS011;5574;48.786;10.120;2023-04-06T01:33:16;5.27;;;4.47;;
11042;SDS011;5574;48.786;10.120;2023-04-06T01:35:43;6.37;;;4.37;;
11042;SDS011;5574;48.786;10.120;2023-04-06T01:38:09;6.03;;;4.57;;
11042;SDS011;5574;48.786;10.120;2023-04-06T01:40:37;4.90;;;4.37;;
11042;SDS011;5574;48.786;10.120;2023-04-06T01:43:04;8.57;;;4.43;;
11042;SDS011;5574;48.786;10.120;2023-04-06T01:45:31;5.40;;;4.40;;
11042;SDS011;5574;48.786;10.120;2023-04-06T01:47:58;5.73;;;4.33;;
11042;SDS011;5574;48.786;10.120;2023-04-06T01:50:24;6.23;;;4.63;;
11042;SDS011;5574;48.786;10.120;2023-04-06T01:52:51;5.30;;;4.27;;
11042;SDS011;5574;48.786;10.120;2023-04-06T01:55:18;5.53;;;4.47;;
11042;SDS011;5574;48.786;10.120;2023-04-06T01:57:46;5.27;;;4.77;;
11042;SDS011;5574;48.786;10.120;2023-04-06T02:02:40;5.70;;;4.60;;
11042;SDS011;5574;48.786;10.120;2023-04-06T02:05:07;5.10;;;4.60;;
11042;SDS011;5574;48.786;10.120;2023-04-06T02:07:34;7.03;;;4.70;;
11042;SDS011;5574;48.786;10.120;2023-04-06T02:10:01;6.47;;;5.10;;
11042;SDS011;5574;48.786;10.120;2023-04-06T02:12:28;6.30;;;4.50;;
11042;SDS011;5574;48.786;10.120;2023-04-06T02:14:56;4.80;;;3.83;;
11042;SDS011;5574;48.786;10.120;2023-04-06T02:17:23;7.87;;;4.67;;
11042;SDS011;5574;48.786;10.120;2023-04-06T02:19:50;7.33;;;4.60;;
11042;SDS011;5574;48.786;10.120;2023-04-06T02:22:16;4.77;;;4.20;;
11042;SDS011;5574;48.786;10.120;2023-04-06T02:24:43;5.43;;;4.50;;
11042;SDS011;5574;48.786;10.120;2023-04-06T02:27:10;6.27;;;4.37;;
11042;SDS011;5574;48.786;10.120;2023-04-06T02:29:37;5.70;;;4.40;;
11042;SDS011;5574;48.786;10.120;2023-04-06T02:32:05;5.73;;;4.20;;
11042;SDS011;5574;48.786;10.120;2023-04-06T02:34:32;7.23;;;4.37;;
11042;SDS011;5574;48.786;10.120;2023-04-06T02:36:59;5.63;;;4.40;;
11042;SDS011;5574;48.786;10.120;2023-04-06T02:39:25;5.10;;;4.47;;
11042;SDS011;5574;48.786;10.120;2023-04-06T02:41:52;4.90;;;4.40;;
11042;SDS011;5574;48.786;10.120;2023-04-06T02:44:19;5.83;;;4.67;;
11042;SDS011;5574;48.786;10.120;2023-04-06T02:46:45;6.27;;;4.53;;
11042;SDS011;5574;48.786;10.120;2023-04-06T02:49:13;5.73;;;4.23;;
11042;SDS011;5574;48.786;10.120;2023-04-06T02:51:40;6.70;;;4.60;;
11042;SDS011;5574;48.786;10.120;2023-04-06T02:54:07;7.50;;;4.77;;
11042;SDS011;5574;48.786;10.120;2023-04-06T02:56:33;6.40;;;4.73;;
11042;SDS011;5574;48.786;10.120;2023-04-06T02:59:00;4.67;;;4.00;;
11042;SDS011;5574;48.786;10.120;2023-04-06T03:01:27;6.00;;;4.53;;
11042;SDS011;5574;48.786;10.120;2023-04-06T03:03:53;4.60;;;4.20;;
11042;SDS011;5574;48.786;10.120;2023-04-06T03:06:21;5.90;;;4.57;;
11042;SDS011;5574;48.786;10.120;2023-04-06T03:08:48;9.77;;;4.90;;
11042;SDS011;5574;48.786;10.120;2023-04-06T03:11:15;5.60;;;3.90;;
11042;SDS011;5574;48.786;10.120;2023-04-06T03:13:41;6.23;;;4.43;;
11042;SDS011;5574;48.786;10.120;2023-04-06T03:16:08;6.53;;;4.30;;
11042;SDS011;5574;48.786;10.120;2023-04-06T03:18:35;5.83;;;5.03;;
11042;SDS011;5574;48.786;10.120;2023-04-06T03:21:02;6.80;;;4.63;;
11042;SDS011;5574;48.786;10.120;2023-04-06T03:23:30;7.97;;;4.57;;
11042;SDS011;5574;48.786;10.120;2023-04-06T03:25:56;8.03;;;5.00;;
11042;SDS011;5574;48.786;10.120;2023-04-06T03:28:23;5.60;;;4.20;;
11042;SDS011;5574;48.786;10.120;2023-04-06T03:30:50;5.17;;;4.23;;
11042;SDS011;5574;48.786;10.120;2023-04-06T03:33:16;5.50;;;4.87;;
11042;SDS011;5574;48.786;10.120;2023-04-06T03:35:43;7.97;;;4.80;;
11042;SDS011;5574;48.786;10.120;2023-04-06T03:38:10;6.77;;;5.40;;
11042;SDS011;5574;48.786;10.120;2023-04-06T03:40:38;8.00;;;4.70;;
11042;SDS011;5574;48.786;10.120;2023-04-06T03:43:05;6.83;;;4.90;;
11042;SDS011;5574;48.786;10.120;2023-04-06T03:45:31;9.70;;;4.80;;
11042;SDS011;5574;48.786;10.120;2023-04-06T03:47:58;6.77;;;4.63;;
11042;SDS011;5574;48.786;10.120;2023-04-06T03:50:24;6.80;;;4.50;;
11042;SDS011;5574;48.786;10.120;2023-04-06T03:52:51;7.10;;;5.00;;
11042;SDS011;5574;48.786;10.120;2023-04-06T03:55:18;6.57;;;4.53;;
11042;SDS011;5574;48.786;10.120;2023-04-06T03:57:46;11.43;;;4.80;;
11042;SDS011;5574;48.786;10.120;2023-04-06T04:00:13;6.67;;;5.37;;
11042;SDS011;5574;48.786;10.120;2023-04-06T04:02:40;9.63;;;4.67;;
11042;SDS011;5574;48.786;10.120;2023-04-06T04:05:07;7.87;;;4.80;;
11042;SDS011;5574;48.786;10.120;2023-04-06T04:07:34;8.73;;;4.97;;
11042;SDS011;5574;48.786;10.120;2023-04-06T04:10:01;9.87;;;4.83;;
11042;SDS011;5574;48.786;10.120;2023-04-06T04:12:27;11.47;;;5.57;;
11042;SDS011;5574;48.786;10.120;2023-04-06T04:14:55;11.37;;;4.80;;
11042;SDS011;5574;48.786;10.120;2023-04-06T04:17:22;11.10;;;5.07;;
11042;SDS011;5574;48.786;10.120;2023-04-06T04:19:49;7.97;;;5.50;;
11042;SDS011;5574;48.786;10.120;2023-04-06T04:22:15;8.83;;;5.20;;
11042;SDS011;5574;48.786;10.120;2023-04-06T04:24:42;8.40;;;5.20;;
11042;SDS011;5574;48.786;10.120;2023-04-06T04:27:09;8.67;;;5.17;;
11042;SDS011;5574;48.786;10.120;2023-04-06T04:29:36;10.80;;;5.20;;
11042;SDS011;5574;48.786;10.120;2023-04-06T04:32:04;8.87;;;5.20;;
11042;SDS011;5574;48.786;10.120;2023-04-06T04:34:31;6.67;;;4.93;;
11042;SDS011;5574;48.786;10.120;2023-04-06T04:36:58;9.57;;;5.13;;
11042;SDS011;5574;48.786;10.120;2023-04-06T04:39:25;9.80;;;5.03;;
11042;SDS011;5574;48.786;10.120;2023-04-06T04:41:51;8.47;;;4.73;;
11042;SDS011;5574;48.786;10.120;2023-04-06T04:44:18;9.10;;;5.50;;
11042;SDS011;5574;48.786;10.120;2023-04-06T04:46:45;7.30;;;5.10;;
11042;SDS011;5574;48.786;10.120;2023-04-06T04:49:13;8.63;;;4.97;;
11042;SDS011;5574;48.786;10.120;2023-04-06T04:51:40;6.83;;;5.43;;
11042;SDS011;5574;48.786;10.120;2023-04-06T04:54:06;6.90;;;4.90;;
11042;SDS011;5574;48.786;10.120;2023-04-06T04:56:33;7.30;;;5.07;;
11042;SDS011;5574;48.786;10.120;2023-04-06T04:59:00;5.97;;;4.87;;
11042;SDS011;5574;48.786;10.120;2023-04-06T05:01:26;11.27;;;5.40;;
11042;SDS011;5574;48.786;10.120;2023-04-06T05:03:53;8.43;;;5.80;;
11042;SDS011;5574;48.786;10.120;2023-04-06T05:06:21;8.73;;;5.10;;
11042;SDS011;5574;48.786;10.120;2023-04-06T05:08:48;10.83;;;5.77;;
11042;SDS011;5574;48.786;10.120;2023-04-06T05:11:15;9.17;;;6.00;;
11042;SDS011;5574;48.786;10.120;2023-04-06T05:13:41;9.93;;;5.63;;
11042;SDS011;5574;48.786;10.120;2023-04-06T05:16:08;8.87;;;5.63;;
11042;SDS011;5574;48.786;10.120;2023-04-06T05:18:35;21.03;;;6.73;;
11042;SDS011;5574;48.786;10.120;2023-04-06T05:21:02;7.73;;;4.97;;
11042;SDS011;5574;48.786;10.120;2023-04-06T05:23:30;8.10;;;5.37;;
11042;SDS011;5574;48.786;10.120;2023-04-06T05:25:56;12.33;;;5.53;;
11042;SDS011;5574;48.786;10.120;2023-04-06T05:28:23;9.37;;;5.77;;
11042;SDS011;5574;48.786;10.120;2023-04-06T05:30:50;7.60;;;5.70;;
11042;SDS011;5574;48.786;10.120;2023-04-06T05:33:17;7.30;;;5.40;;
11042;SDS011;5574;48.786;10.120;2023-04-06T05:35:44;10.83;;;5.30;;
11042;SDS011;5574;48.786;10.120;2023-04-06T05:38:10;7.77;;;5.20;;
11042;SDS011;5574;48.786;10.120;2023-04-06T05:40:38;13.80;;;5.77;;
11042;SDS011;5574;48.786;10.120;2023-04-06T05:43:06;11.73;;;5.90;;
11042;SDS011;5574;48.786;10.120;2023-04-06T05:45:33;13.77;;;5.97;;
11042;SDS011;5574;48.786;10.120;2023-04-06T05:48:00;10.87;;;6.10;;
11042;SDS011;5574;48.786;10.120;2023-04-06T05:50:27;8.17;;;5.87;;
11042;SDS011;5574;48.786;10.120;2023-04-06T05:52:54;12.00;;;5.87;;
11042;SDS011;5574;48.786;10.120;2023-04-06T05:55:20;10.33;;;6.00;;
11042;SDS011;5574;48.786;10.120;2023-04-06T05:57:48;11.70;;;5.70;;
11042;SDS011;5574;48.786;10.120;2023-04-06T06:00:15;9.00;;;6.47;;
11042;SDS011;5574;48.786;10.120;2023-04-06T06:02:42;11.70;;;6.07;;
11042;SDS011;5574;48.786;10.120;2023-04-06T06:05:09;11.50;;;6.50;;
11042;SDS011;5574;48.786;10.120;2023-04-06T06:07:36;9.40;;;6.10;;
11042;SDS011;5574;48.786;10.120;2023-04-06T06:10:03;9.90;;;5.43;;
11042;SDS011;5574;48.786;10.120;2023-04-06T06:12:30;12.43;;;5.87;;
11042;SDS011;5574;48.786;10.120;2023-04-06T06:14:58;15.57;;;7.70;;
11042;SDS011;5574;48.786;10.120;2023-04-06T06:17:25;11.97;;;6.77;;
11042;SDS011;5574;48.786;10.120;2023-04-06T06:19:52;14.77;;;6.50;;
11042;SDS011;5574;48.786;10.120;2023-04-06T06:22:18;10.97;;;6.20;;
11042;SDS011;5574;48.786;10.120;2023-04-06T06:24:45;10.07;;;6.03;;
11042;SDS011;5574;48.786;10.120;2023-04-06T06:27:12;10.03;;;6.13;;
11042;SDS011;5574;48.786;10.120;2023-04-06T06:29:39;11.83;;;6.47;;
11042;SDS011;5574;48.786;10.120;2023-04-06T06:32:07;14.00;;;6.70;;
11042;SDS011;5574;48.786;10.120;2023-04-06T06:34:34;12.23;;;6.63;;
11042;SDS011;5574;48.786;10.120;2023-04-06T06:37:01;12.33;;;6.10;;
11042;SDS011;5574;48.786;10.120;2023-04-06T06:39:28;10.40;;;6.27;;
11042;SDS011;5574;48.786;10.120;2023-04-06T06:41:54;13.93;;;6.90;;
11042;SDS011;5574;48.786;10.120;2023-04-06T06:44:21;10.57;;;7.10;;
11042;SDS011;5574;48.786;10.120;2023-04-06T06:46:48;17.00;;;7.50;;
11042;SDS011;5574;48.786;10.120;2023-04-06T06:49:16;7.23;;;6.37;;
11042;SDS011;5574;48.786;10.120;2023-04-06T06:51:43;8.70;;;6.50;;
11042;SDS011;5574;48.786;10.120;2023-04-06T06:54:10;11.13;;;5.90;;
11042;SDS011;5574;48.786;10.120;2023-04-06T06:56:37;10.80;;;7.13;;
11042;SDS011;5574;48.786;10.120;2023-04-06T06:59:04;14.07;;;7.00;;
11042;SDS011;5574;48.786;10.120;2023-04-06T07:01:31;13.57;;;7.33;;
11042;SDS011;5574;48.786;10.120;2023-04-06T07:03:58;10.00;;;6.90;;
11042;SDS011;5574;48.786;10.120;2023-04-06T07:06:26;10.27;;;6.80;;
11042;SDS011;5574;48.786;10.120;2023-04-06T07:08:53;9.93;;;6.67;;
11042;SDS011;5574;48.786;10.120;2023-04-06T07:11:20;8.80;;;6.87;;
11042;SDS011;5574;48.786;10.120;2023-04-06T07:13:46;9.47;;;8.07;;
11042;SDS011;5574;48.786;10.120;2023-04-06T07:16:13;11.47;;;6.90;;
11042;SDS011;5574;48.786;10.120;2023-04-06T07:18:40;10.70;;;7.27;;
11042;SDS011;5574;48.786;10.120;2023-04-06T07:21:07;11.77;;;7.27;;
11042;SDS011;5574;48.786;10.120;2023-04-06T07:23:35;10.53;;;7.43;;
11042;SDS011;5574;48.786;10.120;2023-04-06T07:26:01;9.03;;;6.83;;
11042;SDS011;5574;48.786;10.120;2023-04-06T07:28:28;11.57;;;7.17;;
11042;SDS011;5574;48.786;10.120;2023-04-06T07:30:55;13.03;;;7.60;;
11042;SDS011;5574;48.786;10.120;2023-04-06T07:33:21;7.60;;;6.80;;
11042;SDS011;5574;48.786;10.120;2023-04-06T07:35:48;8.43;;;7.53;;
11042;SDS011;5574;48.786;10.120;2023-04-06T07:38:15;10.73;;;7.43;;
11042;SDS011;5574;48.786;10.120;2023-04-06T07:40:43;10.40;;;7.50;;
11042;SDS011;5574;48.786;10.120;2023-04-06T07:43:10;14.30;;;8.57;;
11042;SDS011;5574;48.786;10.120;2023-04-06T07:45:36;10.03;;;7.87;;
11042;SDS011;5574;48.786;10.120;2023-04-06T07:48:03;11.60;;;7.90;;
11042;SDS011;5574;48.786;10.120;2023-04-06T07:50:30;11.87;;;8.00;;
11042;SDS011;5574;48.786;10.120;2023-04-06T07:52:57;9.20;;;7.50;;
11042;SDS011;5574;48.786;10.120;2023-04-06T07:55:23;11.47;;;8.10;;
11042;SDS011;5574;48.786;10.120;2023-04-06T07:57:51;8.80;;;7.33;;
11042;SDS011;5574;48.786;10.120;2023-04-06T08:00:18;9.40;;;8.07;;
11042;SDS011;5574;48.786;10.120;2023-04-06T08:02:45;11.40;;;7.93;;
11042;SDS011;5574;48.786;10.120;2023-04-06T08:05:12;12.20;;;7.93;;
11042;SDS011;5574;48.786;10.120;2023-04-06T08:07:39;10.73;;;7.93;;
11042;SDS011;5574;48.786;10.120;2023-04-06T08:10:06;15.73;;;7.50;;
11042;SDS011;5574;48.786;10.120;2023-04-06T08:12:34;11.43;;;7.43;;
11042;SDS011;5574;48.786;10.120;2023-04-06T08:15:02;9.73;;;7.63;;
11042;SDS011;5574;48.786;10.120;2023-04-06T08:17:29;11.93;;;8.07;;
11042;SDS011;5574;48.786;10.120;2023-04-06T08:19:58;9.10;;;7.57;;
11042;SDS011;5574;48.786;10.120;2023-04-06T08:22:25;13.63;;;7.97;;
11042;SDS011;5574;48.786;10.120;2023-04-06T08:24:52;10.83;;;7.93;;
11042;SDS011;5574;48.786;10.120;2023-04-06T08:27:19;7.60;;;6.80;;
11042;SDS011;5574;48.786;10.120;2023-04-06T08:29:45;11.47;;;7.13;;
11042;SDS011;5574;48.786;10.120;2023-04-06T08:32:14;8.60;;;6.90;;
11042;SDS011;5574;48.786;10.120;2023-04-06T08:34:41;7.67;;;6.87;;
11042;SDS011;5574;48.786;10.120;2023-04-06T08:37:08;7.97;;;6.40;;
11042;SDS011;5574;48.786;10.120;2023-04-06T08:39:34;8.63;;;6.20;;
11042;SDS011;5574;48.786;10.120;2023-04-06T08:42:01;7.60;;;6.10;;
11042;SDS011;5574;48.786;10.120;2023-04-06T08:44:28;7.67;;;6.47;;
11042;SDS011;5574;48.786;10.120;2023-04-06T08:46:56;8.63;;;6.57;;
11042;SDS011;5574;48.786;10.120;2023-04-06T08:49:24;9.87;;;6.97;;
11042;SDS011;5574;48.786;10.120;2023-04-06T08:51:51;10.53;;;6.47;;
11042;SDS011;5574;48.786;10.120;2023-04-06T08:54:18;7.90;;;6.50;;
11042;SDS011;5574;48.786;10.120;2023-04-06T08:56:45;8.27;;;7.37;;
11042;SDS011;5574;48.786;10.120;2023-04-06T08:59:13;16.10;;;7.77;;
11042;SDS011;5574;48.786;10.120;2023-04-06T09:01:40;8.10;;;6.90;;
11042;SDS011;5574;48.786;10.120;2023-04-06T09:04:10;8.87;;;6.97;;
11042;SDS011;5574;48.786;10.120;2023-04-06T09:06:38;7.27;;;6.50;;
11042;SDS011;5574;48.786;10.120;2023-04-06T09:09:05;8.47;;;7.03;;
11042;SDS011;5574;48.786;10.120;2023-04-06T09:11:45;7.13;;;6.43;;
11042;SDS011;5574;48.786;10.120;2023-04-06T09:14:12;8.10;;;6.60;;
11042;SDS011;5574;48.786;10.120;2023-04-06T09:16:40;11.00;;;7.07;;
11042;SDS011;5574;48.786;10.120;2023-04-06T09:19:08;8.47;;;6.70;;
11042;SDS011;5574;48.786;10.120;2023-04-06T09:21:35;7.37;;;6.10;;
11042;SDS011;5574;48.786;10.120;2023-04-06T09:24:06;7.20;;;5.83;;
11042;SDS011;5574;48.786;10.120;2023-04-06T09:26:43;6.20;;;5.57;;
11042;SDS011;5574;48.786;10.120;2023-04-06T09:29:21;7.80;;;6.33;;
11042;SDS011;5574;48.786;10.120;2023-04-06T09:31:48;5.57;;;5.07;;
11042;SDS011;5574;48.786;10.120;2023-04-06T09:34:20;6.73;;;6.00;;
11042;SDS011;5574;48.786;10.120;2023-04-06T09:36:47;8.50;;;6.20;;
11042;SDS011;5574;48.786;10.120;2023-04-06T09:39:15;5.70;;;5.20;;
11042;SDS011;5574;48.786;10.120;2023-04-06T09:41:48;9.50;;;5.53;;
11042;SDS011;5574;48.786;10.120;2023-04-06T09:44:16;7.87;;;6.80;;
11042;SDS011;5574;48.786;10.120;2023-04-06T09:46:44;6.43;;;5.80;;
11042;SDS011;5574;48.786;10.120;2023-04-06T09:49:12;7.73;;;6.93;;
11042;SDS011;5574;48.786;10.120;2023-04-06T09:51:39;7.40;;;6.50;;
11042;SDS011;5574;48.786;10.120;2023-04-06T09:54:10;6.20;;;5.60;;
11042;SDS011;5574;48.786;10.120;2023-04-06T09:56:44;10.10;;;6.27;;
11042;SDS011;5574;48.786;10.120;2023-04-06T09:59:13;7.20;;;6.50;;
11042;SDS011;5574;48.786;10.120;2023-04-06T10:01:44;7.47;;;6.60;;
11042;SDS011;5574;48.786;10.120;2023-04-06T10:04:19;8.60;;;6.50;;
11042;SDS011;5574;48.786;10.120;2023-04-06T10:06:53;8.83;;;6.53;;
11042;SDS011;5574;48.786;10.120;2023-04-06T10:09:22;7.50;;;5.93;;
11042;SDS011;5574;48.786;10.120;2023-04-06T10:11:55;7.00;;;5.87;;
11042;SDS011;5574;48.786;10.120;2023-04-06T10:14:24;7.03;;;6.17;;
11042;SDS011;5574;48.786;10.120;2023-04-06T10:16:50;6.70;;;5.67;;
11042;SDS011;5574;48.786;10.120;2023-04-06T10:19:18;7.30;;;6.57;;
11042;SDS011;5574;48.786;10.120;2023-04-06T10:21:50;9.60;;;6.00;;
11042;SDS011;5574;48.786;10.120;2023-04-06T10:24:21;7.10;;;6.20;;
11042;SDS011;5574;48.786;10.120;2023-04-06T10:26:57;6.80;;;6.00;;
11042;SDS011;5574;48.786;10.120;2023-04-06T10:29:25;6.20;;;5.60;;
11042;SDS011;5574;48.786;10.120;2023-04-06T10:31:52;7.53;;;6.10;;
11042;SDS011;5574;48.786;10.120;2023-04-06T10:34:20;6.27;;;5.63;;
11042;SDS011;5574;48.786;10.120;2023-04-06T10:36:47;8.10;;;6.90;;
11042;SDS011;5574;48.786;10.120;2023-04-06T10:39:13;6.67;;;5.70;;
11042;SDS011;5574;48.786;10.120;2023-04-06T10:41:41;7.13;;;6.43;;
11042;SDS011;5574;48.786;10.120;2023-04-06T10:44:18;8.60;;;6.50;;
11042;SDS011;5574;48.786;10.120;2023-04-06T10:46:52;7.90;;;6.37;;
11042;SDS011;5574;48.786;10.120;2023-04-06T10:49:20;7.20;;;6.50;;
11042;SDS011;5574;48.786;10.120;2023-04-06T10:51:51;7.73;;;6.63;;
11042;SDS011;5574;48.786;10.120;2023-04-06T10:54:20;9.43;;;6.13;;
11042;SDS011;5574;48.786;10.120;2023-04-06T10:56:47;6.80;;;5.87;;
11042;SDS011;5574;48.786;10.120;2023-04-06T10:59:19;6.47;;;5.80;;
11042;SDS011;5574;48.786;10.120;2023-04-06T11:01:46;9.03;;;6.30;;
11042;SDS011;5574;48.786;10.120;2023-04-06T11:04:15;6.67;;;5.97;;
11042;SDS011;5574;48.786;10.120;2023-04-06T11:06:45;7.47;;;6.17;;
11042;SDS011;5574;48.786;10.120;2023-04-06T11:09:22;8.53;;;6.53;;
11042;SDS011;5574;48.786;10.120;2023-04-06T11:11:49;7.40;;;6.30;;
11042;SDS011;5574;48.786;10.120;2023-04-06T11:14:16;7.10;;;6.40;;
11042;SDS011;5574;48.786;10.120;2023-04-06T11:16:45;8.13;;;6.37;;
11042;SDS011;5574;48.786;10.120;2023-04-06T11:19:12;7.47;;;6.40;;
11042;SDS011;5574;48.786;10.120;2023-04-06T11:21:40;7.37;;;6.60;;
11042;SDS011;5574;48.786;10.120;2023-04-06T11:24:09;6.80;;;6.10;;
11042;SDS011;5574;48.786;10.120;2023-04-06T11:26:37;6.90;;;6.20;;
11042;SDS011;5574;48.786;10.120;2023-04-06T11:29:05;7.60;;;6.87;;
11042;SDS011;5574;48.786;10.120;2023-04-06T11:31:36;8.10;;;6.20;;
11042;SDS011;5574;48.786;10.120;2023-04-06T11:34:09;8.60;;;6.53;;
11042;SDS011;5574;48.786;10.120;2023-04-06T11:36:39;7.83;;;6.17;;
11042;SDS011;5574;48.786;10.120;2023-04-06T11:39:07;8.40;;;6.97;;
11042;SDS011;5574;48.786;10.120;2023-04-06T11:41:34;6.50;;;5.80;;
11042;SDS011;5574;48.786;10.120;2023-04-06T11:44:01;7.47;;;6.67;;
11042;SDS011;5574;48.786;10.120;2023-04-06T11:46:27;7.00;;;6.30;;
11042;SDS011;5574;48.786;10.120;2023-04-06T11:48:57;7.57;;;6.87;;
11042;SDS011;5574;48.786;10.120;2023-04-06T11:51:26;7.17;;;6.47;;
11042;SDS011;5574;48.786;10.120;2023-04-06T11:53:53;7.77;;;6.53;;
11042;SDS011;5574;48.786;10.120;2023-04-06T11:56:26;7.10;;;6.40;;
11042;SDS011;5574;48.786;10.120;2023-04-06T11:58:54;6.90;;;6.20;;
11042;SDS011;5574;48.786;10.120;2023-04-06T12:01:22;7.53;;;6.53;;
11042;SDS011;5574;48.786;10.120;2023-04-06T12:03:51;6.33;;;5.73;;
11042;SDS011;5574;48.786;10.120;2023-04-06T12:06:18;6.80;;;6.20;;
11042;SDS011;5574;48.786;10.120;2023-04-06T12:08:46;6.83;;;6.10;;
11042;SDS011;5574;48.786;10.120;2023-04-06T12:11:13;7.50;;;6.43;;
11042;SDS011;5574;48.786;10.120;2023-04-06T12:13:40;6.97;;;6.27;;
11042;SDS011;5574;48.786;10.120;2023-04-06T12:16:06;6.90;;;6.20;;
11042;SDS011;5574;48.786;10.120;2023-04-06T12:18:33;6.37;;;5.57;;
11042;SDS011;5574;48.786;10.120;2023-04-06T12:21:00;7.87;;;6.20;;
11042;SDS011;5574;48.786;10.120;2023-04-06T12:23:26;6.37;;;5.60;;
11042;SDS011;5574;48.786;10.120;2023-04-06T12:25:54;6.97;;;6.27;;
11042;SDS011;5574;48.786;10.120;2023-04-06T12:28:21;6.80;;;6.10;;
11042;SDS011;5574;48.786;10.120;2023-04-06T12:30:51;8.17;;;6.07;;
11042;SDS011;5574;48.786;10.120;2023-04-06T12:33:18;7.47;;;6.27;;
11042;SDS011;5574;48.786;10.120;2023-04-06T12:35:45;7.50;;;6.33;;
11042;SDS011;5574;48.786;10.120;2023-04-06T12:38:12;6.40;;;5.80;;
11042;SDS011;5574;48.786;10.120;2023-04-06T12:40:39;7.77;;;6.40;;
11042;SDS011;5574;48.786;10.120;2023-04-06T12:43:07;6.10;;;5.50;;
11042;SDS011;5574;48.786;10.120;2023-04-06T12:45:34;8.50;;;6.20;;
11042;SDS011;5574;48.786;10.120;2023-04-06T12:48:00;7.40;;;6.00;;
11042;SDS011;5574;48.786;10.120;2023-04-06T12:50:27;6.80;;;6.10;;
11042;SDS011;5574;48.786;10.120;2023-04-06T12:52:54;6.70;;;6.00;;
11042;SDS011;5574;48.786;10.120;2023-04-06T12:55:21;7.63;;;5.57;;
11042;SDS011;5574;48.786;10.120;2023-04-06T12:57:47;6.60;;;6.00;;
11042;SDS011;5574;48.786;10.120;2023-04-06T13:00:16;8.63;;;6.20;;
11042;SDS011;5574;48.786;10.120;2023-04-06T13:02:43;6.73;;;5.97;;
11042;SDS011;5574;48.786;10.120;2023-04-06T13:05:12;7.50;;;6.20;;
11042;SDS011;5574;48.786;10.120;2023-04-06T13:07:39;7.17;;;6.47;;
11042;SDS011;5574;48.786;10.120;2023-04-06T13:10:06;6.93;;;5.77;;
11042;SDS011;5574;48.786;10.120;2023-04-06T13:12:34;6.67;;;5.67;;
11042;SDS011;5574;48.786;10.120;2023-04-06T13:15:01;6.37;;;5.50;;
11042;SDS011;5574;48.786;10.120;2023-04-06T13:17:29;6.20;;;5.10;;
11042;SDS011;5574;48.786;10.120;2023-04-06T13:19:56;6.53;;;5.87;;
11042;SDS011;5574;48.786;10.120;2023-04-06T13:22:23;7.13;;;5.43;;
11042;SDS011;5574;48.786;10.120;2023-04-06T13:24:49;7.43;;;6.10;;
11042;SDS011;5574;48.786;10.120;2023-04-06T13:27:16;9.27;;;6.00;;
11042;SDS011;5574;48.786;10.120;2023-04-06T13:29:43;6.50;;;5.80;;
11042;SDS011;5574;48.786;10.120;2023-04-06T13:32:09;5.70;;;5.10;;
11042;SDS011;5574;48.786;10.120;2023-04-06T13:34:37;7.57;;;6.07;;
11042;SDS011;5574;48.786;10.120;2023-04-06T13:37:05;8.77;;;5.70;;
11042;SDS011;5574;48.786;10.120;2023-04-06T13:39:32;5.33;;;4.80;;
11042;SDS011;5574;48.786;10.120;2023-04-06T13:42:06;6.43;;;5.83;;
11042;SDS011;5574;48.786;10.120;2023-04-06T13:44:34;5.97;;;5.20;;
11042;SDS011;5574;48.786;10.120;2023-04-06T13:47:01;6.77;;;5.90;;
11042;SDS011;5574;48.786;10.120;2023-04-06T13:49:28;5.83;;;5.27;;
11042;SDS011;5574;48.786;10.120;2023-04-06T13:51:55;6.10;;;5.50;;
11042;SDS011;5574;48.786;10.120;2023-04-06T13:54:21;6.23;;;5.47;;
11042;SDS011;5574;48.786;10.120;2023-04-06T13:56:48;5.60;;;5.10;;
11042;SDS011;5574;48.786;10.120;2023-04-06T13:59:16;6.20;;;5.30;;
11042;SDS011;5574;48.786;10.120;2023-04-06T14:01:43;6.47;;;5.80;;
11042;SDS011;5574;48.786;10.120;2023-04-06T14:04:09;5.80;;;5.20;;
11042;SDS011;5574;48.786;10.120;2023-04-06T14:06:36;6.07;;;4.97;;
11042;SDS011;5574;48.786;10.120;2023-04-06T14:09:03;5.60;;;5.00;;
11042;SDS011;5574;48.786;10.120;2023-04-06T14:11:30;6.33;;;5.03;;
11042;SDS011;5574;48.786;10.120;2023-04-06T14:13:57;6.10;;;5.50;;
11042;SDS011;5574;48.786;10.120;2023-04-06T14:16:26;7.77;;;5.40;;
11042;SDS011;5574;48.786;10.120;2023-04-06T14:18:53;6.93;;;5.67;;
11042;SDS011;5574;48.786;10.120;2023-04-06T14:21:20;6.77;;;6.17;;
11042;SDS011;5574;48.786;10.120;2023-04-06T14:23:46;6.30;;;5.27;;
11042;SDS011;5574;48.786;10.120;2023-04-06T14:26:13;6.20;;;5.43;;
11042;SDS011;5574;48.786;10.120;2023-04-06T14:28:40;7.20;;;5.47;;
11042;SDS011;5574;48.786;10.120;2023-04-06T14:31:09;5.40;;;4.90;;
11042;SDS011;5574;48.786;10.120;2023-04-06T14:33:39;5.90;;;5.00;;
11042;SDS011;5574;48.786;10.120;2023-04-06T14:36:06;6.47;;;5.40;;
11042;SDS011;5574;48.786;10.120;2023-04-06T14:38:34;5.60;;;5.10;;
11042;SDS011;5574;48.786;10.120;2023-04-06T14:41:00;8.87;;;5.60;;
11042;SDS011;5574;48.786;10.120;2023-04-06T14:43:27;6.20;;;5.60;;
11042;SDS011;5574;48.786;10.120;2023-04-06T14:45:54;5.40;;;4.90;;
11042;SDS011;5574;48.786;10.120;2023-04-06T14:48:25;5.90;;;5.30;;